Time,TemperatureF,DewpointF,PressureIn,WindDirection,WindDirectionDegrees,WindSpeedMPH,WindSpeedGustMPH,Humidity,HourlyPrecipIn,Conditions,Clouds,dailyrainin,SoftwareType,DateUTC
2013-05-25 00:22:00,43.0,40.0,30.00,ENE,65,6.0,18.0,90,0.00,,,0.25,,2013-05-24 23:22:00,
2013-05-25 00:32:00,43.0,40.0,30.00,ENE,65,6.0,18.0,90,0.00,,,0.25,,2013-05-24 23:32:00,
2013-05-25 00:42:00,43.0,40.0,30.00,ENE,65,6.0,18.0,90,0.00,,,0.25,,2013-05-24 23:42:00,
2013-05-25 00:51:00,44.0,41.0,30.02,ESE,105,5.0,15.0,89,0.00,,,0.25,,2013-05-24 23:51:00,
2013-05-25 00:52:00,44.0,41.0,30.01,ENE,65,7.0,15.0,90,0.00,,,0.25,,2013-05-24 23:52:00,
2013-05-25 01:01:00,44.0,41.0,30.01,ENE,65,7.0,15.0,90,0.00,,,0.25,,2013-05-25 00:01:00,
2013-05-25 01:11:00,44.0,41.0,30.01,ENE,65,7.0,15.0,90,0.00,,,0.25,,2013-05-25 00:11:00,
2013-05-25 01:21:00,44.0,41.0,30.02,ESE,105,5.0,15.0,89,0.00,,,0.25,,2013-05-25 00:21:00,
2013-05-25 01:32:00,44.0,41.0,30.02,ESE,105,5.0,15.0,89,0.00,,,0.25,,2013-05-25 00:32:00,
2013-05-25 01:41:00,44.0,41.0,30.02,ESE,105,5.0,15.0,89,0.00,,,0.25,,2013-05-25 00:41:00,
2013-05-25 02:52:00,43.0,40.0,30.05,ENE,72,5.0,15.0,89,0.00,,,0.25,,2013-05-25 01:52:00,
2013-05-25 03:01:00,43.0,40.0,30.05,ENE,72,5.0,15.0,89,0.00,,,0.25,,2013-05-25 02:01:00,
2013-05-25 03:11:00,43.0,40.0,30.05,ENE,72,5.0,15.0,89,0.00,,,0.25,,2013-05-25 02:11:00,
2013-05-25 03:21:00,43.0,40.0,30.05,SE,125,5.0,12.0,90,0.00,,,0.25,,2013-05-25 02:21:00,
2013-05-25 03:31:00,43.0,40.0,30.05,SE,125,5.0,12.0,90,0.00,,,0.25,,2013-05-25 02:31:00,
2013-05-25 03:41:00,43.0,40.0,30.06,East,82,3.0,10.0,90,0.00,,,0.25,,2013-05-25 02:41:00,
2013-05-25 03:42:00,43.0,40.0,30.05,SE,125,5.0,12.0,90,0.00,,,0.25,,2013-05-25 02:42:00,
2013-05-25 03:52:00,43.0,40.0,30.05,ESE,117,5.0,12.0,90,0.00,,,0.25,,2013-05-25 02:52:00,
2013-05-25 04:01:00,43.0,40.0,30.06,East,82,3.0,10.0,90,0.00,,,0.25,,2013-05-25 03:01:00,
2013-05-25 04:11:00,43.0,40.0,30.06,East,82,3.0,10.0,90,0.00,,,0.25,,2013-05-25 03:11:00,
2013-05-25 04:21:00,43.0,40.0,30.06,East,82,3.0,10.0,90,0.00,,,0.25,,2013-05-25 03:21:00,
2013-05-25 04:32:00,43.0,40.0,30.06,East,82,3.0,10.0,90,0.00,,,0.25,,2013-05-25 03:32:00,
2013-05-25 04:53:00,42.0,40.0,30.07,SE,124,2.0,10.0,91,0.00,,,0.25,,2013-05-25 03:53:00,
2013-05-25 05:02:00,42.0,40.0,30.07,SE,124,2.0,10.0,91,0.00,,,0.25,,2013-05-25 04:02:00,
2013-05-25 05:12:00,42.0,40.0,30.07,SE,124,2.0,10.0,91,0.00,,,0.25,,2013-05-25 04:12:00,
2013-05-25 05:21:00,41.0,39.0,30.08,ENE,72,6.0,12.0,92,0.00,,,0.25,,2013-05-25 04:21:00,
2013-05-25 05:23:00,41.0,39.0,30.08,East,96,2.0,6.0,92,0.00,,,0.25,,2013-05-25 04:23:00,
2013-05-25 05:32:00,41.0,39.0,30.08,East,96,2.0,6.0,92,0.00,,,0.25,,2013-05-25 04:32:00,
2013-05-25 05:43:00,41.0,39.0,30.08,East,96,2.0,6.0,92,0.00,,,0.25,,2013-05-25 04:43:00,
2013-05-25 05:52:00,41.0,39.0,30.08,ENE,72,6.0,12.0,92,0.00,,,0.25,,2013-05-25 04:52:00,
2013-05-25 06:02:00,41.0,39.0,30.08,ENE,72,6.0,12.0,92,0.00,,,0.25,,2013-05-25 05:02:00,
2013-05-25 06:12:00,41.0,39.0,30.08,ENE,72,6.0,12.0,92,0.00,,,0.25,,2013-05-25 05:12:00,
2013-05-25 07:02:00,44.0,42.0,30.10,NE,55,3.0,15.0,91,0.00,,,0.25,,2013-05-25 06:02:00,
2013-05-25 07:12:00,45.0,42.0,30.11,NE,51,6.0,10.0,88,0.00,,,0.25,,2013-05-25 06:12:00,
2013-05-25 07:21:00,45.0,42.0,30.11,NE,51,6.0,10.0,88,0.00,,,0.25,,2013-05-25 06:21:00,
2013-05-25 07:32:00,45.0,42.0,30.11,NE,51,6.0,10.0,88,0.00,,,0.25,,2013-05-25 06:32:00,
2013-05-25 07:42:00,45.0,42.0,30.11,NE,51,6.0,10.0,88,0.00,,,0.25,,2013-05-25 06:42:00,
2013-05-25 07:52:00,45.0,42.0,30.11,NE,51,6.0,10.0,88,0.00,,,0.25,,2013-05-25 06:52:00,
2013-05-25 08:01:00,45.0,42.0,30.11,NE,51,6.0,10.0,88,0.00,,,0.25,,2013-05-25 07:01:00,
2013-05-25 08:51:00,50.0,43.0,30.14,NNE,33,6.0,14.0,77,0.00,,,0.25,,2013-05-25 07:51:00,
2013-05-25 09:22:00,50.0,43.0,30.14,NNE,33,6.0,14.0,77,0.00,,,0.25,,2013-05-25 08:22:00,
2013-05-25 09:32:00,50.0,43.0,30.14,NNE,33,6.0,14.0,77,0.00,,,0.25,,2013-05-25 08:32:00,
2013-05-25 09:42:00,50.0,43.0,30.14,NNE,33,6.0,14.0,77,0.00,,,0.25,,2013-05-25 08:42:00,
2013-05-25 10:21:00,52.0,42.0,30.14,NE,55,7.0,15.0,69,0.00,,,0.25,,2013-05-25 09:21:00,
2013-05-25 10:33:00,52.0,42.0,30.14,NE,55,7.0,15.0,69,0.00,,,0.25,,2013-05-25 09:33:00,
2013-05-25 10:43:00,52.0,42.0,30.14,NE,55,7.0,15.0,69,0.00,,,0.25,,2013-05-25 09:43:00,
2013-05-25 10:52:00,52.0,42.0,30.14,NE,55,7.0,15.0,69,0.00,,,0.25,,2013-05-25 09:52:00,
2013-05-25 11:01:00,55.0,43.0,30.14,ENE,73,8.0,13.0,63,0.00,,,0.25,,2013-05-25 10:01:00,
2013-05-25 11:02:00,54.0,42.0,30.14,NNE,26,8.0,16.0,64,0.00,,,0.25,,2013-05-25 10:02:00,
2013-05-25 11:12:00,54.0,42.0,30.14,NNE,26,8.0,16.0,64,0.00,,,0.25,,2013-05-25 10:12:00,
2013-05-25 11:22:00,55.0,43.0,30.14,ENE,73,8.0,13.0,63,0.00,,,0.25,,2013-05-25 10:22:00,
2013-05-25 11:32:00,55.0,43.0,30.14,ENE,73,8.0,13.0,63,0.00,,,0.25,,2013-05-25 10:32:00,
2013-05-25 11:42:00,55.0,43.0,30.14,ENE,73,8.0,13.0,63,0.00,,,0.25,,2013-05-25 10:42:00,
2013-05-25 11:52:00,55.0,43.0,30.14,ENE,73,8.0,13.0,63,0.00,,,0.25,,2013-05-25 10:52:00,
2013-05-25 12:52:00,58.0,41.0,30.14,ESE,107,6.0,16.0,54,0.00,,,0.25,,2013-05-25 11:52:00,
2013-05-25 13:01:00,58.0,41.0,30.14,ESE,107,6.0,16.0,54,0.00,,,0.25,,2013-05-25 12:01:00,
2013-05-25 13:12:00,58.0,41.0,30.14,ESE,107,6.0,16.0,54,0.00,,,0.25,,2013-05-25 12:12:00,
2013-05-25 13:21:00,57.0,40.0,30.14,ENE,73,6.0,16.0,53,0.00,,,0.25,,2013-05-25 12:21:00,
2013-05-25 13:32:00,57.0,40.0,30.14,ENE,73,6.0,16.0,53,0.00,,,0.25,,2013-05-25 12:32:00,
2013-05-25 13:42:00,57.0,40.0,30.14,ENE,73,6.0,16.0,53,0.00,,,0.25,,2013-05-25 12:42:00,
2013-05-25 13:52:00,57.0,40.0,30.14,ENE,73,6.0,16.0,53,0.00,,,0.25,,2013-05-25 12:52:00,
2013-05-25 14:01:00,57.0,40.0,30.14,ENE,73,6.0,16.0,53,0.00,,,0.25,,2013-05-25 13:01:00,
2013-05-25 14:22:00,60.0,41.0,30.12,East,98,3.0,14.0,50,0.00,,,0.24,,2013-05-25 13:22:00,
2013-05-25 14:31:00,60.0,40.0,30.12,NNE,26,6.0,16.0,48,0.00,,,0.24,,2013-05-25 13:31:00,
2013-05-25 14:32:00,60.0,41.0,30.12,East,98,3.0,14.0,50,0.00,,,0.24,,2013-05-25 13:32:00,
2013-05-25 14:42:00,60.0,41.0,30.12,East,98,3.0,14.0,50,0.00,,,0.24,,2013-05-25 13:42:00,
2013-05-25 14:52:00,60.0,40.0,30.12,NNE,26,6.0,16.0,48,0.00,,,0.24,,2013-05-25 13:52:00,
2013-05-25 15:02:00,60.0,40.0,30.12,NNE,26,6.0,16.0,48,0.00,,,0.24,,2013-05-25 14:02:00,
2013-05-25 15:11:00,60.0,40.0,30.12,NNE,26,6.0,16.0,48,0.00,,,0.24,,2013-05-25 14:11:00,
2013-05-25 15:22:00,60.0,40.0,30.12,NNE,26,6.0,16.0,48,0.00,,,0.24,,2013-05-25 14:22:00,
2013-05-25 15:41:00,61.0,40.0,30.12,NE,38,9.0,16.0,45,0.00,,,0.24,,2013-05-25 14:41:00,
2013-05-25 16:01:00,61.0,40.0,30.12,NE,38,9.0,16.0,45,0.00,,,0.24,,2013-05-25 15:01:00,
2013-05-25 16:11:00,61.0,40.0,30.12,NE,38,9.0,16.0,45,0.00,,,0.24,,2013-05-25 15:11:00,
2013-05-25 16:22:00,61.0,40.0,30.12,NE,38,9.0,16.0,45,0.00,,,0.24,,2013-05-25 15:22:00,
2013-05-25 16:33:00,61.0,40.0,30.12,NE,38,9.0,16.0,45,0.00,,,0.24,,2013-05-25 15:33:00,
2013-05-25 16:53:00,59.0,39.0,30.11,NE,42,6.0,17.0,47,0.00,,,0.23,,2013-05-25 15:53:00,
2013-05-25 17:03:00,59.0,39.0,30.11,NE,42,6.0,17.0,47,0.00,,,0.23,,2013-05-25 16:03:00,
2013-05-25 17:12:00,59.0,39.0,30.11,NE,42,6.0,17.0,47,0.00,,,0.23,,2013-05-25 16:12:00,
2013-05-25 17:22:00,61.0,40.0,30.11,SE,131,7.0,13.0,46,0.00,,,0.23,,2013-05-25 16:22:00,
2013-05-25 17:32:00,61.0,40.0,30.11,SE,131,7.0,13.0,46,0.00,,,0.23,,2013-05-25 16:32:00,
2013-05-25 17:42:00,61.0,40.0,30.11,SE,131,7.0,13.0,46,0.00,,,0.23,,2013-05-25 16:42:00,
2013-05-25 17:52:00,61.0,40.0,30.11,NE,55,3.0,12.0,46,0.00,,,0.23,,2013-05-25 16:52:00,
2013-05-25 18:02:00,61.0,39.0,30.11,East,87,4.0,12.0,44,0.00,,,0.23,,2013-05-25 17:02:00,
2013-05-25 18:11:00,61.0,39.0,30.11,East,87,4.0,12.0,44,0.00,,,0.23,,2013-05-25 17:11:00,
2013-05-25 18:22:00,60.0,38.0,30.11,East,88,6.0,12.0,44,0.00,,,0.23,,2013-05-25 17:22:00,
2013-05-25 18:32:00,60.0,38.0,30.11,East,88,6.0,12.0,44,0.00,,,0.23,,2013-05-25 17:32:00,
2013-05-25 18:41:00,60.0,38.0,30.11,East,88,6.0,12.0,44,0.00,,,0.23,,2013-05-25 17:41:00,
2013-05-25 18:52:00,60.0,38.0,30.11,East,88,6.0,12.0,44,0.00,,,0.23,,2013-05-25 17:52:00,
2013-05-25 19:01:00,60.0,38.0,30.11,East,88,6.0,12.0,44,0.00,,,0.23,,2013-05-25 18:01:00,
2013-05-25 19:22:00,60.0,38.0,30.11,NE,55,8.0,14.0,44,0.00,,,0.20,,2013-05-25 18:22:00,
2013-05-25 19:32:00,60.0,38.0,30.11,NE,55,8.0,14.0,44,0.00,,,0.20,,2013-05-25 18:32:00,
2013-05-25 19:42:00,60.0,38.0,30.11,NE,55,8.0,14.0,44,0.00,,,0.20,,2013-05-25 18:42:00,
2013-05-25 19:52:00,60.0,38.0,30.11,NE,55,8.0,14.0,44,0.00,,,0.20,,2013-05-25 18:52:00,
2013-05-25 20:01:00,60.0,38.0,30.11,NE,55,8.0,14.0,44,0.00,,,0.20,,2013-05-25 19:01:00,
2013-05-25 20:02:00,59.0,38.0,30.11,ENE,60,5.0,10.0,46,0.00,,,0.17,,2013-05-25 19:02:00,
2013-05-25 20:22:00,59.0,38.0,30.11,ENE,60,5.0,10.0,46,0.00,,,0.17,,2013-05-25 19:22:00,
2013-05-25 20:32:00,59.0,38.0,30.11,ENE,60,5.0,10.0,46,0.00,,,0.17,,2013-05-25 19:32:00,
2013-05-25 20:42:00,59.0,38.0,30.11,ENE,60,5.0,10.0,46,0.00,,,0.17,,2013-05-25 19:42:00,
2013-05-25 20:52:00,59.0,38.0,30.11,ENE,60,5.0,10.0,46,0.00,,,0.17,,2013-05-25 19:52:00,
2013-05-25 21:22:00,56.0,38.0,30.11,NNE,16,2.0,8.0,51,0.00,,,0.13,,2013-05-25 20:22:00,
2013-05-25 21:32:00,56.0,38.0,30.11,NNE,16,2.0,8.0,51,0.00,,,0.13,,2013-05-25 20:32:00,
2013-05-25 21:41:00,54.0,40.0,30.12,ENE,65,0.0,8.0,58,0.00,,,0.10,,2013-05-25 20:41:00,
2013-05-25 21:42:00,56.0,38.0,30.11,NNE,16,2.0,8.0,51,0.00,,,0.13,,2013-05-25 20:42:00,
2013-05-25 21:52:00,56.0,38.0,30.11,NNE,16,2.0,8.0,51,0.00,,,0.13,,2013-05-25 20:52:00,
2013-05-25 22:01:00,54.0,40.0,30.12,ENE,65,0.0,8.0,58,0.00,,,0.10,,2013-05-25 21:01:00,
2013-05-25 22:11:00,54.0,40.0,30.12,ENE,65,0.0,8.0,58,0.00,,,0.10,,2013-05-25 21:11:00,
2013-05-25 22:21:00,54.0,40.0,30.12,ENE,65,0.0,8.0,58,0.00,,,0.10,,2013-05-25 21:21:00,
2013-05-25 22:33:00,54.0,40.0,30.12,ENE,65,0.0,8.0,58,0.00,,,0.10,,2013-05-25 21:33:00,
2013-05-25 22:53:00,51.0,40.0,30.11,ENE,65,2.0,3.0,66,0.00,,,0.10,,2013-05-25 21:53:00,
2013-05-25 23:03:00,51.0,40.0,30.11,ENE,65,2.0,3.0,66,0.00,,,0.10,,2013-05-25 22:03:00,
2013-05-25 23:11:00,49.0,39.0,30.11,ENE,65,1.0,3.0,69,0.00,,,0.08,,2013-05-25 22:11:00,
2013-05-25 23:12:00,51.0,40.0,30.11,ENE,65,2.0,3.0,66,0.00,,,0.10,,2013-05-25 22:12:00,
2013-05-25 23:22:00,49.0,39.0,30.11,ENE,65,2.0,3.0,67,0.00,,,0.09,,2013-05-25 22:22:00,
2013-05-25 23:32:00,49.0,39.0,30.11,ENE,65,1.0,3.0,69,0.00,,,0.08,,2013-05-25 22:32:00,
2013-05-25 23:42:00,49.0,39.0,30.11,ENE,65,1.0,3.0,69,0.00,,,0.08,,2013-05-25 22:42:00,
2013-05-25 23:52:00,49.0,39.0,30.11,ENE,65,1.0,3.0,69,0.00,,,0.08,,2013-05-25 22:52:00,